Time;durP1;ratioP1;P1;durP2;ratioP2;P2;SDS_P1;SDS_P2;PMS_P1;PMS_P2;Temp;Humidity;BMP_temperature;BMP_pressure;BME280_temperature;BME280_humidity;BME280_pressure;Samples;Min_cycle;Max_cycle;Signal;HPM_P1;HPM_P2
2023/07/29 00:00:24;;;;;;;17.00;10.50;;;;;;;;;;5072023;28;20042;-58
2023/07/29 00:02:50;;;;;;;17.65;10.48;;;;;;;;;;5042916;28;20106;-57
2023/07/29 00:05:16;;;;;;;18.30;11.20;;;;;;;;;;4969934;28;20065;-61
2023/07/29 00:07:42;;;;;;;16.60;10.13;;;;;;;;;;4969338;28;20031;-59
2023/07/29 00:10:08;;;;;;;19.45;10.60;;;;;;;;;;4969663;28;20058;-58
2023/07/29 00:12:34;;;;;;;17.92;10.05;;;;;;;;;;4985702;28;20031;-60
2023/07/29 00:15:00;;;;;;;16.98;10.02;;;;;;;;;;4970114;28;20027;-58
2023/07/29 00:17:26;;;;;;;16.85;10.38;;;;;;;;;;4970983;28;20022;-58
2023/07/29 00:19:52;;;;;;;19.50;10.68;;;;;;;;;;4970789;28;20026;-58
2023/07/29 00:22:18;;;;;;;18.10;10.95;;;;;;;;;;4971100;28;20034;-59
2023/07/29 00:24:44;;;;;;;18.17;9.45;;;;;;;;;;4970310;28;20104;-58
2023/07/29 00:27:10;;;;;;;17.52;9.60;;;;;;;;;;4986679;28;20030;-56
2023/07/29 00:29:36;;;;;;;17.13;10.07;;;;;;;;;;4969506;28;20050;-53
2023/07/29 00:32:02;;;;;;;16.25;9.32;;;;;;;;;;4970895;28;20027;-53
2023/07/29 00:34:28;;;;;;;15.50;8.73;;;;;;;;;;4970043;28;20027;-51
2023/07/29 00:36:54;;;;;;;19.30;9.40;;;;;;;;;;4970733;28;20026;-53
2023/07/29 00:39:20;;;;;;;15.82;8.73;;;;;;;;;;4970632;28;20031;-56
2023/07/29 00:41:46;;;;;;;17.13;9.40;;;;;;;;;;4970546;28;20495;-56
2023/07/29 00:44:12;;;;;;;15.43;9.10;;;;;;;;;;4969929;28;20030;-55
2023/07/29 00:46:38;;;;;;;16.23;9.32;;;;;;;;;;4969187;28;20023;-56
2023/07/29 00:49:04;;;;;;;16.50;9.55;;;;;;;;;;4970390;28;20027;-52
2023/07/29 00:51:31;;;;;;;16.77;9.80;;;;;;;;;;5013636;28;20369;-57
2023/07/29 00:53:57;;;;;;;17.52;9.75;;;;;;;;;;5070066;28;20396;-52
2023/07/29 00:56:23;;;;;;;16.73;9.85;;;;;;;;;;5071300;28;20067;-52
2023/07/29 00:58:49;;;;;;;17.55;10.18;;;;;;;;;;5070519;28;20043;-57
2023/07/29 01:01:15;;;;;;;16.60;9.48;;;;;;;;;;5071743;28;20495;-53
2023/07/29 01:03:41;;;;;;;18.95;9.88;;;;;;;;;;5070397;28;20365;-55
2023/07/29 01:06:16;;;;;;;17.90;10.27;;;;;;;;;;5070871;28;20071;-58
2023/07/29 01:08:47;;;;;;;16.77;10.30;;;;;;;;;;5072125;28;20025;-57
2023/07/29 01:11:14;;;;;;;18.30;10.52;;;;;;;;;;5071660;28;20024;-55
2023/07/29 01:13:40;;;;;;;16.67;10.18;;;;;;;;;;5071970;28;20423;-57
2023/07/29 01:16:10;;;;;;;17.27;10.35;;;;;;;;;;5071126;28;20020;-55
2023/07/29 01:18:38;;;;;;;18.27;10.68;;;;;;;;;;5071899;28;20033;-57
2023/07/29 01:21:04;;;;;;;17.52;11.02;;;;;;;;;;5070348;28;20021;-55
2023/07/29 01:23:31;;;;;;;18.73;10.32;;;;;;;;;;5071704;28;20577;-53
2023/07/29 01:25:57;;;;;;;19.38;11.07;;;;;;;;;;5070728;28;20036;-58
2023/07/29 01:28:23;;;;;;;18.88;11.30;;;;;;;;;;5071662;28;20074;-53
2023/07/29 01:30:50;;;;;;;17.17;10.60;;;;;;;;;;5071757;28;20570;-55
2023/07/29 01:33:26;;;;;;;18.70;11.93;;;;;;;;;;5071424;28;20032;-56
2023/07/29 01:35:55;;;;;;;18.38;11.10;;;;;;;;;;5070743;28;20435;-56
2023/07/29 01:38:33;;;;;;;19.23;11.18;;;;;;;;;;5071682;28;20424;-54
2023/07/29 01:41:01;;;;;;;17.90;10.83;;;;;;;;;;5070234;28;20025;-54
2023/07/29 01:43:28;;;;;;;17.95;10.63;;;;;;;;;;5071116;28;20275;-55
2023/07/29 01:45:54;;;;;;;18.52;10.88;;;;;;;;;;5070472;28;20506;-58
2023/07/29 01:48:20;;;;;;;18.58;10.27;;;;;;;;;;5071502;28;20480;-55
2023/07/29 01:50:46;;;;;;;18.15;10.23;;;;;;;;;;5071409;28;20036;-54
2023/07/29 01:53:12;;;;;;;18.08;10.40;;;;;;;;;;5071329;28;20476;-55
2023/07/29 01:55:39;;;;;;;17.58;10.18;;;;;;;;;;5070522;28;20024;-54
2023/07/29 01:58:05;;;;;;;16.75;9.70;;;;;;;;;;5070138;28;20162;-56
2023/07/29 02:00:31;;;;;;;16.38;9.25;;;;;;;;;;5071268;28;20469;-56
2023/07/29 02:02:57;;;;;;;16.60;9.40;;;;;;;;;;5071189;28;20108;-50
2023/07/29 02:05:23;;;;;;;16.17;9.07;;;;;;;;;;5070497;28;20400;-57
2023/07/29 02:07:49;;;;;;;17.48;9.15;;;;;;;;;;5071146;28;20496;-57
2023/07/29 02:10:15;;;;;;;17.75;9.60;;;;;;;;;;5071263;28;20043;-55
2023/07/29 02:12:42;;;;;;;16.20;9.25;;;;;;;;;;5071274;28;20395;-56
2023/07/29 02:15:08;;;;;;;17.20;8.63;;;;;;;;;;5070427;28;20116;-53
2023/07/29 02:17:34;;;;;;;18.98;9.85;;;;;;;;;;4969803;28;20027;-56
2023/07/29 02:20:00;;;;;;;17.15;9.82;;;;;;;;;;4963290;28;20030;-57
2023/07/29 02:22:26;;;;;;;17.05;9.73;;;;;;;;;;4969549;28;20034;-58
2023/07/29 02:24:52;;;;;;;17.60;9.65;;;;;;;;;;4972064;28;20062;-56
2023/07/29 02:27:18;;;;;;;17.58;10.73;;;;;;;;;;4972543;28;20425;-56
2023/07/29 02:29:44;;;;;;;17.83;10.15;;;;;;;;;;4972685;28;20069;-56
2023/07/29 02:32:10;;;;;;;17.77;9.77;;;;;;;;;;4971291;28;20479;-53
2023/07/29 02:34:36;;;;;;;18.50;10.30;;;;;;;;;;4971657;28;20070;-56
2023/07/29 02:37:02;;;;;;;16.95;9.75;;;;;;;;;;4972554;28;20037;-57
2023/07/29 02:39:28;;;;;;;17.70;9.63;;;;;;;;;;4971337;28;20460;-56
2023/07/29 02:41:55;;;;;;;17.88;10.10;;;;;;;;;;4971212;28;20079;-52
2023/07/29 02:44:21;;;;;;;17.17;9.80;;;;;;;;;;4971395;28;20027;-51
2023/07/29 02:46:47;;;;;;;16.77;9.98;;;;;;;;;;4972263;28;20371;-54
2023/07/29 02:49:14;;;;;;;18.63;10.65;;;;;;;;;;4971102;28;20034;-52
2023/07/29 02:51:40;;;;;;;18.08;10.57;;;;;;;;;;4972340;28;20062;-57
2023/07/29 02:54:06;;;;;;;21.40;11.27;;;;;;;;;;4971936;28;20070;-53
2023/07/29 02:56:31;;;;;;;18.35;11.18;;;;;;;;;;4972191;28;20058;-57
2023/07/29 02:58:57;;;;;;;18.17;11.50;;;;;;;;;;4971575;28;20027;-56
2023/07/29 03:01:26;;;;;;;20.77;11.18;;;;;;;;;;4970973;28;20066;-55
2023/07/29 03:03:52;;;;;;;19.45;11.60;;;;;;;;;;4971677;28;20029;-54
2023/07/29 03:06:19;;;;;;;18.58;11.38;;;;;;;;;;4971620;28;20023;-53
2023/07/29 03:08:45;;;;;;;20.77;11.75;;;;;;;;;;4971953;28;20043;-56
2023/07/29 03:11:13;;;;;;;18.80;11.05;;;;;;;;;;4972192;28;20105;-51
2023/07/29 03:13:39;;;;;;;18.13;11.38;;;;;;;;;;4972581;28;20023;-54
2023/07/29 03:16:08;;;;;;;18.60;11.13;;;;;;;;;;4971522;28;20083;-53
2023/07/29 03:18:34;;;;;;;17.98;11.43;;;;;;;;;;4972233;28;20027;-57
2023/07/29 03:21:00;;;;;;;20.13;11.98;;;;;;;;;;4970910;28;20085;-55
2023/07/29 03:23:26;;;;;;;19.48;11.10;;;;;;;;;;4971789;28;20522;-59
2023/07/29 03:25:56;;;;;;;18.27;10.73;;;;;;;;;;4971055;28;20441;-55
2023/07/29 03:28:22;;;;;;;20.10;10.95;;;;;;;;;;4971612;28;20022;-57
2023/07/29 03:30:48;;;;;;;19.33;11.23;;;;;;;;;;4971525;28;20546;-50
2023/07/29 03:33:14;;;;;;;17.50;11.35;;;;;;;;;;4971304;28;20153;-54
2023/07/29 03:35:44;;;;;;;19.42;11.43;;;;;;;;;;4969541;28;20494;-55
2023/07/29 03:38:10;;;;;;;18.17;11.43;;;;;;;;;;4971546;28;20031;-52
2023/07/29 03:40:36;;;;;;;18.10;11.13;;;;;;;;;;4971506;28;20034;-54
2023/07/29 03:43:02;;;;;;;17.67;11.27;;;;;;;;;;4971114;28;20023;-55
2023/07/29 03:45:28;;;;;;;18.38;11.88;;;;;;;;;;4970543;28;20077;-51
2023/07/29 03:47:54;;;;;;;19.65;12.07;;;;;;;;;;4971435;28;20027;-55
2023/07/29 03:50:20;;;;;;;17.95;11.60;;;;;;;;;;4971612;28;20112;-55
2023/07/29 03:52:46;;;;;;;18.33;11.32;;;;;;;;;;4971152;28;20031;-54
2023/07/29 03:55:12;;;;;;;18.38;11.73;;;;;;;;;;4970447;28;20034;-50
2023/07/29 03:57:38;;;;;;;18.92;11.52;;;;;;;;;;4970201;28;20022;-55
2023/07/29 04:00:04;;;;;;;18.33;11.85;;;;;;;;;;4971580;28;20023;-55
2023/07/29 04:02:30;;;;;;;18.08;11.48;;;;;;;;;;4969999;28;20023;-54
2023/07/29 04:04:56;;;;;;;17.80;11.45;;;;;;;;;;4965720;28;20048;-55
2023/07/29 04:07:22;;;;;;;20.67;12.90;;;;;;;;;;4967961;28;20064;-53
2023/07/29 04:09:49;;;;;;;19.20;12.30;;;;;;;;;;4971019;28;20077;-53
2023/07/29 04:12:15;;;;;;;21.75;13.07;;;;;;;;;;4970979;28;20053;-56
2023/07/29 04:14:41;;;;;;;19.67;12.30;;;;;;;;;;4969854;28;20027;-55
2023/07/29 04:17:07;;;;;;;19.05;13.05;;;;;;;;;;4970997;28;20029;-51
2023/07/29 04:19:33;;;;;;;19.85;13.00;;;;;;;;;;4971143;28;20429;-54
2023/07/29 04:22:00;;;;;;;19.80;12.65;;;;;;;;;;4970241;28;20029;-52
2023/07/29 04:24:26;;;;;;;19.30;12.98;;;;;;;;;;4968956;28;20058;-57
2023/07/29 04:26:51;;;;;;;19.98;13.15;;;;;;;;;;4970601;28;20038;-53
2023/07/29 04:29:17;;;;;;;18.60;12.60;;;;;;;;;;4970673;28;20058;-56
2023/07/29 04:31:43;;;;;;;19.42;12.40;;;;;;;;;;4970668;28;20027;-56
2023/07/29 04:34:09;;;;;;;19.33;12.85;;;;;;;;;;4968440;28;20092;-56
2023/07/29 04:36:35;;;;;;;19.58;13.05;;;;;;;;;;4970817;28;20106;-56
2023/07/29 04:39:01;;;;;;;19.33;12.77;;;;;;;;;;4970949;28;20049;-58
2023/07/29 04:41:27;;;;;;;21.27;13.88;;;;;;;;;;4970969;28;20033;-54
2023/07/29 04:43:53;;;;;;;18.75;12.27;;;;;;;;;;4969231;28;20085;-53
2023/07/29 04:46:19;;;;;;;19.00;12.13;;;;;;;;;;4969527;28;20035;-53
2023/07/29 04:48:45;;;;;;;20.40;12.93;;;;;;;;;;4969387;28;20060;-56
2023/07/29 04:51:11;;;;;;;20.63;13.68;;;;;;;;;;4970556;28;20395;-53
2023/07/29 04:53:38;;;;;;;20.42;13.30;;;;;;;;;;4970316;28;20027;-53
2023/07/29 04:56:04;;;;;;;21.33;13.40;;;;;;;;;;4968273;28;20026;-57
2023/07/29 04:58:30;;;;;;;19.77;13.45;;;;;;;;;;4970306;28;20042;-55
2023/07/29 05:00:56;;;;;;;21.92;13.80;;;;;;;;;;4970320;28;20027;-56
2023/07/29 05:03:22;;;;;;;21.40;13.68;;;;;;;;;;4970276;28;20031;-56
2023/07/29 05:05:48;;;;;;;20.90;13.10;;;;;;;;;;4968278;28;20126;-56
2023/07/29 05:08:14;;;;;;;20.40;12.88;;;;;;;;;;4969578;28;20394;-56
2023/07/29 05:10:40;;;;;;;20.52;13.18;;;;;;;;;;4969147;28;20031;-56
2023/07/29 05:13:06;;;;;;;20.52;13.63;;;;;;;;;;4968977;28;20510;-53
2023/07/29 05:15:32;;;;;;;19.88;13.05;;;;;;;;;;4969267;28;20110;-56
2023/07/29 05:17:58;;;;;;;18.63;12.07;;;;;;;;;;4970184;28;20023;-56
2023/07/29 05:20:24;;;;;;;19.35;12.73;;;;;;;;;;4970193;28;20061;-57
2023/07/29 05:22:50;;;;;;;19.15;12.85;;;;;;;;;;4970182;28;20023;-56
2023/07/29 05:25:16;;;;;;;19.48;12.73;;;;;;;;;;4968873;28;20038;-54
2023/07/29 05:27:42;;;;;;;19.38;12.48;;;;;;;;;;4968835;28;20023;-53
2023/07/29 05:30:08;;;;;;;18.23;11.90;;;;;;;;;;4968714;28;20518;-55
2023/07/29 05:32:34;;;;;;;19.20;13.07;;;;;;;;;;4970359;28;20113;-56
2023/07/29 05:35:00;;;;;;;20.50;12.38;;;;;;;;;;4969096;28;20542;-56
2023/07/29 05:37:26;;;;;;;21.30;14.10;;;;;;;;;;4969771;28;20035;-57
2023/07/29 05:39:52;;;;;;;20.30;13.07;;;;;;;;;;4970071;28;20062;-56
2023/07/29 05:42:18;;;;;;;21.08;12.73;;;;;;;;;;4969985;28;20034;-53
2023/07/29 05:44:44;;;;;;;19.48;12.50;;;;;;;;;;4969230;28;20435;-57
2023/07/29 05:47:10;;;;;;;20.00;12.65;;;;;;;;;;4969787;28;20042;-54
2023/07/29 05:49:36;;;;;;;20.40;13.38;;;;;;;;;;4969765;28;20445;-56
2023/07/29 05:52:02;;;;;;;21.25;13.65;;;;;;;;;;4969848;28;20031;-55
2023/07/29 05:54:28;;;;;;;20.80;13.85;;;;;;;;;;4968931;28;20168;-56
2023/07/29 05:56:54;;;;;;;23.38;14.43;;;;;;;;;;4969307;28;20179;-54
2023/07/29 05:59:20;;;;;;;22.50;15.05;;;;;;;;;;4972937;28;20098;-55
2023/07/29 06:01:46;;;;;;;21.20;14.05;;;;;;;;;;4972989;28;20616;-57
2023/07/29 06:04:12;;;;;;;20.27;13.90;;;;;;;;;;4972059;28;20129;-55
2023/07/29 06:06:38;;;;;;;21.40;13.55;;;;;;;;;;4972602;28;20478;-57
2023/07/29 06:09:04;;;;;;;20.08;13.32;;;;;;;;;;4972662;28;20180;-55
2023/07/29 06:11:30;;;;;;;20.58;13.70;;;;;;;;;;4972774;28;20034;-54
2023/07/29 06:13:56;;;;;;;20.25;12.77;;;;;;;;;;4971841;28;20398;-56
2023/07/29 06:16:22;;;;;;;21.23;14.13;;;;;;;;;;4972312;28;20105;-55
2023/07/29 06:18:48;;;;;;;20.27;13.52;;;;;;;;;;4972500;28;20019;-57
2023/07/29 06:21:16;;;;;;;18.63;12.57;;;;;;;;;;4972454;28;20688;-56
2023/07/29 06:23:43;;;;;;;21.38;12.95;;;;;;;;;;4972417;28;20425;-55
2023/07/29 06:26:09;;;;;;;20.15;13.23;;;;;;;;;;4972682;28;20035;-57
2023/07/29 06:28:35;;;;;;;20.45;13.27;;;;;;;;;;4972283;28;20030;-55
2023/07/29 06:31:01;;;;;;;19.88;13.68;;;;;;;;;;4972335;28;20118;-55
2023/07/29 06:33:27;;;;;;;18.58;12.90;;;;;;;;;;4972002;28;20421;-55
2023/07/29 06:35:53;;;;;;;21.55;12.88;;;;;;;;;;4971548;28;20034;-56
2023/07/29 06:38:21;;;;;;;19.27;13.60;;;;;;;;;;4971056;28;20027;-57
2023/07/29 06:40:48;;;;;;;22.05;13.55;;;;;;;;;;4972458;28;20431;-56
2023/07/29 06:43:14;;;;;;;20.48;14.18;;;;;;;;;;4970877;28;20032;-51
2023/07/29 06:45:40;;;;;;;22.40;13.30;;;;;;;;;;4971871;28;20034;-55
2023/07/29 06:48:06;;;;;;;21.13;13.77;;;;;;;;;;4967548;28;20113;-52
2023/07/29 06:50:32;;;;;;;18.40;12.48;;;;;;;;;;4972044;28;20031;-50
2023/07/29 06:52:58;;;;;;;18.73;11.75;;;;;;;;;;4972000;28;20536;-52
2023/07/29 06:55:23;;;;;;;19.52;11.50;;;;;;;;;;4956144;28;20042;-52
2023/07/29 06:57:49;;;;;;;18.35;11.88;;;;;;;;;;4954504;28;20033;-57
2023/07/29 07:00:15;;;;;;;20.13;11.57;;;;;;;;;;4953604;28;20019;-54
2023/07/29 07:02:41;;;;;;;21.00;10.80;;;;;;;;;;4957617;28;20019;-56
2023/07/29 07:05:07;;;;;;;16.65;8.85;;;;;;;;;;4972734;28;20050;-56
2023/07/29 07:07:33;;;;;;;16.15;8.00;;;;;;;;;;4971414;28;20061;-55
2023/07/29 07:09:59;;;;;;;15.15;7.72;;;;;;;;;;4970172;28;20050;-52
2023/07/29 07:12:25;;;;;;;15.30;7.22;;;;;;;;;;4971738;28;20339;-54
2023/07/29 07:14:51;;;;;;;14.23;7.13;;;;;;;;;;4971389;28;20552;-55
2023/07/29 07:17:18;;;;;;;13.40;6.85;;;;;;;;;;4972177;28;20031;-55
2023/07/29 07:19:44;;;;;;;14.65;7.25;;;;;;;;;;4965256;28;20062;-53
2023/07/29 07:22:10;;;;;;;16.20;7.40;;;;;;;;;;4951071;28;20446;-55
2023/07/29 07:24:36;;;;;;;14.30;7.10;;;;;;;;;;4951955;28;20023;-54
2023/07/29 07:27:03;;;;;;;15.30;8.18;;;;;;;;;;4950709;28;20031;-55
2023/07/29 07:29:29;;;;;;;15.07;7.38;;;;;;;;;;4952774;28;20039;-52
2023/07/29 07:31:56;;;;;;;14.75;7.55;;;;;;;;;;4952037;28;20031;-59
2023/07/29 07:34:23;;;;;;;14.57;7.78;;;;;;;;;;4951012;28;20032;-55
2023/07/29 07:36:49;;;;;;;14.85;7.18;;;;;;;;;;4951762;28;20493;-55
2023/07/29 07:39:15;;;;;;;14.70;7.32;;;;;;;;;;4951961;28;20475;-53
2023/07/29 07:41:42;;;;;;;14.18;7.40;;;;;;;;;;4951905;28;20035;-51
2023/07/29 07:44:08;;;;;;;15.07;7.65;;;;;;;;;;4950146;28;20027;-55
2023/07/29 07:46:34;;;;;;;14.70;7.47;;;;;;;;;;4957220;28;20058;-53
2023/07/29 07:49:00;;;;;;;13.82;7.40;;;;;;;;;;4971158;28;20127;-56
2023/07/29 07:51:26;;;;;;;16.75;8.05;;;;;;;;;;4970905;28;20023;-53
2023/07/29 07:53:52;;;;;;;14.77;7.45;;;;;;;;;;4970634;28;20495;-49
2023/07/29 07:56:18;;;;;;;14.40;7.38;;;;;;;;;;4970539;28;20058;-50
2023/07/29 07:58:44;;;;;;;13.55;7.28;;;;;;;;;;4969517;28;20023;-56
2023/07/29 08:01:10;;;;;;;14.40;7.63;;;;;;;;;;4970740;28;20428;-55
2023/07/29 08:03:36;;;;;;;14.50;7.80;;;;;;;;;;4971044;28;20106;-57
2023/07/29 08:06:03;;;;;;;13.90;7.47;;;;;;;;;;4970214;28;20027;-56
2023/07/29 08:08:29;;;;;;;15.07;7.80;;;;;;;;;;4972098;28;20110;-55
2023/07/29 08:10:56;;;;;;;13.88;7.63;;;;;;;;;;4970695;28;20197;-56
2023/07/29 08:13:23;;;;;;;14.45;7.68;;;;;;;;;;4970695;28;20050;-56
2023/07/29 08:15:50;;;;;;;16.58;8.15;;;;;;;;;;4969849;28;20049;-51
2023/07/29 08:18:17;;;;;;;14.37;7.87;;;;;;;;;;4970321;28;20047;-55
2023/07/29 08:20:57;;;;;;;15.02;7.97;;;;;;;;;;4969255;28;20633;-52
2023/07/29 08:23:24;;;;;;;14.38;8.45;;;;;;;;;;4970468;28;20452;-55
2023/07/29 08:26:02;;;;;;;15.00;7.85;;;;;;;;;;4969424;28;20073;-55
2023/07/29 08:28:29;;;;;;;14.38;8.32;;;;;;;;;;4970582;28;20063;-56
2023/07/29 08:30:55;;;;;;;14.35;8.10;;;;;;;;;;4970305;28;20026;-53
2023/07/29 08:33:21;;;;;;;15.60;8.70;;;;;;;;;;4970585;28;20104;-55
2023/07/29 08:35:47;;;;;;;14.40;8.20;;;;;;;;;;4969720;28;20483;-56
2023/07/29 08:38:13;;;;;;;14.82;8.38;;;;;;;;;;4970607;28;20065;-56
2023/07/29 08:40:43;;;;;;;14.65;7.78;;;;;;;;;;4970144;28;20022;-54
2023/07/29 08:43:09;;;;;;;15.13;8.30;;;;;;;;;;4970281;28;20676;-53
2023/07/29 08:45:36;;;;;;;14.18;8.20;;;;;;;;;;4968133;28;20549;-55
2023/07/29 08:48:08;;;;;;;15.02;8.13;;;;;;;;;;4970475;28;20015;-58
2023/07/29 08:50:36;;;;;;;14.38;8.40;;;;;;;;;;4970099;28;20470;-54
2023/07/29 08:53:03;;;;;;;15.18;8.50;;;;;;;;;;4969868;28;20057;-54
2023/07/29 08:55:29;;;;;;;14.40;7.88;;;;;;;;;;4969398;28;20027;-53
2023/07/29 08:57:55;;;;;;;13.70;7.53;;;;;;;;;;4970118;28;20114;-57
2023/07/29 09:00:22;;;;;;;13.35;7.65;;;;;;;;;;4970034;28;20019;-57
2023/07/29 09:02:48;;;;;;;14.05;7.85;;;;;;;;;;4969848;28;20506;-53
2023/07/29 09:05:14;;;;;;;13.23;7.30;;;;;;;;;;4967829;28;20023;-54
2023/07/29 09:07:41;;;;;;;14.73;7.93;;;;;;;;;;4969548;28;20535;-58
2023/07/29 09:10:10;;;;;;;14.45;7.95;;;;;;;;;;4969562;28;20030;-55
2023/07/29 09:12:36;;;;;;;13.80;8.00;;;;;;;;;;4969636;28;20513;-55
2023/07/29 09:15:02;;;;;;;14.35;7.97;;;;;;;;;;4968746;28;20019;-56
2023/07/29 09:17:31;;;;;;;14.00;8.20;;;;;;;;;;4969575;28;20019;-54
2023/07/29 09:19:57;;;;;;;13.60;8.07;;;;;;;;;;4969620;28;20019;-57
2023/07/29 09:22:25;;;;;;;14.90;9.02;;;;;;;;;;4969464;28;20037;-56
2023/07/29 09:24:52;;;;;;;14.00;8.35;;;;;;;;;;4968848;28;20501;-57
2023/07/29 09:27:27;;;;;;;14.40;8.20;;;;;;;;;;4969458;28;20397;-54
2023/07/29 09:29:54;;;;;;;14.38;8.20;;;;;;;;;;4969685;28;20126;-54
2023/07/29 09:32:24;;;;;;;13.75;8.00;;;;;;;;;;4971509;28;20043;-53
2023/07/29 09:34:50;;;;;;;14.10;8.23;;;;;;;;;;4972018;28;20031;-54
2023/07/29 09:37:17;;;;;;;16.35;8.00;;;;;;;;;;4972749;28;20080;-54
2023/07/29 09:39:44;;;;;;;13.85;8.38;;;;;;;;;;4972880;28;20031;-56
2023/07/29 09:42:20;;;;;;;14.15;8.30;;;;;;;;;;4973121;28;20027;-54
2023/07/29 09:44:46;;;;;;;13.65;7.70;;;;;;;;;;4972029;28;20038;-52
2023/07/29 09:47:22;;;;;;;14.10;8.27;;;;;;;;;;4977430;28;20026;-55
2023/07/29 09:49:49;;;;;;;14.00;8.50;;;;;;;;;;5074731;28;20395;-56
2023/07/29 09:52:18;;;;;;;14.02;8.32;;;;;;;;;;5074656;28;20059;-54
2023/07/29 09:54:45;;;;;;;14.88;8.40;;;;;;;;;;5074297;28;20373;-53
2023/07/29 09:57:12;;;;;;;14.02;8.90;;;;;;;;;;5074594;28;20097;-53
2023/07/29 09:59:38;;;;;;;14.25;8.93;;;;;;;;;;5073143;28;20023;-52
2023/07/29 10:02:04;;;;;;;14.38;8.60;;;;;;;;;;5073204;28;20564;-57
2023/07/29 10:04:31;;;;;;;14.05;8.45;;;;;;;;;;5073419;28;20036;-60
2023/07/29 10:06:58;;;;;;;14.90;8.63;;;;;;;;;;5074257;28;20158;-55
2023/07/29 10:09:24;;;;;;;13.85;8.25;;;;;;;;;;5074822;28;20474;-56
2023/07/29 10:11:52;;;;;;;14.70;8.30;;;;;;;;;;5074582;28;20035;-55
2023/07/29 10:14:18;;;;;;;13.85;8.30;;;;;;;;;;5073940;28;20025;-57
2023/07/29 10:16:45;;;;;;;14.90;8.25;;;;;;;;;;5074343;28;20111;-56
2023/07/29 10:19:12;;;;;;;14.85;8.32;;;;;;;;;;5074411;28;20078;-58
2023/07/29 10:21:40;;;;;;;14.35;8.55;;;;;;;;;;5074364;28;20016;-54
2023/07/29 10:24:10;;;;;;;14.65;8.60;;;;;;;;;;5071848;28;20416;-58
2023/07/29 10:26:38;;;;;;;14.20;8.70;;;;;;;;;;4962153;28;20031;-59
2023/07/29 10:29:08;;;;;;;14.48;8.50;;;;;;;;;;4958986;28;20033;-55
2023/07/29 10:31:34;;;;;;;14.25;8.82;;;;;;;;;;4980157;28;20054;-55
2023/07/29 10:34:01;;;;;;;14.50;8.98;;;;;;;;;;4972083;28;20080;-53
2023/07/29 10:36:27;;;;;;;13.98;8.85;;;;;;;;;;4625491;28;10000561;-55
2023/07/29 10:38:53;;;;;;;14.40;9.00;;;;;;;;;;4968274;28;20102;-54
2023/07/29 10:41:19;;;;;;;14.63;8.82;;;;;;;;;;4969116;28;20034;-53
2023/07/29 10:43:45;;;;;;;14.50;9.25;;;;;;;;;;4967777;28;20035;-60
2023/07/29 10:46:21;;;;;;;14.68;9.18;;;;;;;;;;4957632;28;20035;-57
2023/07/29 10:48:50;;;;;;;14.00;8.45;;;;;;;;;;4962703;28;20066;-56
2023/07/29 10:51:36;;;;;;;14.07;8.38;;;;;;;;;;4968376;28;20114;-52
2023/07/29 10:54:02;;;;;;;14.85;9.25;;;;;;;;;;4963264;28;20057;-54
2023/07/29 10:56:32;;;;;;;14.00;8.55;;;;;;;;;;4948587;28;20027;-55
2023/07/29 10:59:00;;;;;;;14.70;8.85;;;;;;;;;;4949055;28;20471;-56
2023/07/29 11:01:29;;;;;;;13.83;8.70;;;;;;;;;;4948542;28;20067;-52
2023/07/29 11:04:14;;;;;;;14.07;8.77;;;;;;;;;;4948774;28;20031;-59
2023/07/29 11:07:00;;;;;;;14.07;8.80;;;;;;;;;;4948914;28;20416;-54
2023/07/29 11:09:40;;;;;;;14.85;8.50;;;;;;;;;;4949200;28;20104;-56
2023/07/29 11:12:26;;;;;;;13.57;8.00;;;;;;;;;;4960983;28;20348;-58
2023/07/29 11:14:55;;;;;;;15.88;8.57;;;;;;;;;;4970550;28;20058;-56
2023/07/29 11:17:21;;;;;;;14.18;8.63;;;;;;;;;;4968576;28;20031;-57
2023/07/29 11:19:48;;;;;;;14.18;8.85;;;;;;;;;;4968848;28;20041;-56
2023/07/29 11:22:16;;;;;;;15.23;8.80;;;;;;;;;;4967252;28;20034;-57
2023/07/29 11:24:42;;;;;;;14.30;8.63;;;;;;;;;;4969493;28;20033;-53
2023/07/29 11:27:12;;;;;;;14.88;9.20;;;;;;;;;;4965466;28;20403;-59
2023/07/29 11:29:38;;;;;;;14.48;8.60;;;;;;;;;;4984710;28;20023;-58
2023/07/29 11:32:04;;;;;;;14.25;8.70;;;;;;;;;;4968517;28;20054;-54
2023/07/29 11:34:33;;;;;;;13.90;8.32;;;;;;;;;;4969778;28;20218;-56
2023/07/29 11:36:59;;;;;;;14.77;9.07;;;;;;;;;;4970722;28;20136;-58
2023/07/29 11:39:25;;;;;;;14.27;8.68;;;;;;;;;;4970561;28;20038;-54
2023/07/29 11:41:51;;;;;;;14.23;8.82;;;;;;;;;;4962623;28;20023;-58
2023/07/29 11:44:20;;;;;;;14.30;8.13;;;;;;;;;;4969917;28;20218;-55
2023/07/29 11:46:48;;;;;;;14.10;8.20;;;;;;;;;;4970742;28;20031;-55
2023/07/29 11:49:14;;;;;;;14.75;8.20;;;;;;;;;;4970747;28;20027;-52
2023/07/29 11:51:41;;;;;;;14.80;8.40;;;;;;;;;;4970591;28;20058;-56
2023/07/29 11:54:08;;;;;;;14.10;8.35;;;;;;;;;;4969551;28;20068;-56
2023/07/29 11:56:34;;;;;;;14.57;8.55;;;;;;;;;;4968788;28;20487;-52
2023/07/29 11:59:00;;;;;;;14.00;8.70;;;;;;;;;;4970604;28;20023;-53
2023/07/29 12:01:26;;;;;;;14.00;8.60;;;;;;;;;;4970829;28;20548;-53
2023/07/29 12:03:52;;;;;;;15.98;8.80;;;;;;;;;;4970459;28;20027;-59
2023/07/29 12:06:18;;;;;;;14.70;8.90;;;;;;;;;;4970142;28;20035;-52
2023/07/29 12:08:44;;;;;;;14.57;9.35;;;;;;;;;;4970463;28;20037;-51
2023/07/29 12:11:10;;;;;;;14.40;8.93;;;;;;;;;;4970526;28;20023;-55
2023/07/29 12:13:41;;;;;;;14.55;8.90;;;;;;;;;;4971102;28;20035;-55
2023/07/29 12:16:07;;;;;;;14.20;9.35;;;;;;;;;;4970344;28;20041;-50
2023/07/29 12:18:34;;;;;;;15.00;10.10;;;;;;;;;;4970426;28;20026;-57
2023/07/29 12:21:00;;;;;;;15.13;10.18;;;;;;;;;;4969436;28;20040;-56
2023/07/29 12:23:26;;;;;;;15.57;10.02;;;;;;;;;;4970690;28;20110;-57
2023/07/29 12:26:01;;;;;;;14.80;9.55;;;;;;;;;;4982237;22;20045;-46
2023/07/29 12:28:27;;;;;;;16.00;10.00;;;;;;;;;;4589096;28;9999765;-56
2023/07/29 12:30:57;;;;;;;14.63;9.90;;;;;;;;;;4928900;28;20015;-54
2023/07/29 12:33:32;;;;;;;16.10;10.55;;;;;;;;;;4924729;29;20166;-52
2023/07/29 12:35:58;;;;;;;14.60;10.07;;;;;;;;;;4917063;28;20032;-51
2023/07/29 12:38:26;;;;;;;14.90;10.10;;;;;;;;;;4956550;28;20206;-54
2023/07/29 12:40:52;;;;;;;14.48;9.85;;;;;;;;;;4959153;28;20030;-53
2023/07/29 12:43:18;;;;;;;15.40;10.10;;;;;;;;;;5007830;28;20026;-55
2023/07/29 12:45:44;;;;;;;14.70;10.38;;;;;;;;;;4962439;28;20028;-53
2023/07/29 12:48:10;;;;;;;14.77;10.25;;;;;;;;;;4908752;28;20071;-50
2023/07/29 12:50:36;;;;;;;15.43;11.00;;;;;;;;;;4908151;28;20107;-51
2023/07/29 12:53:03;;;;;;;14.90;10.38;;;;;;;;;;4908413;28;20051;-53
2023/07/29 12:55:28;;;;;;;14.60;10.15;;;;;;;;;;4907807;28;20043;-48
2023/07/29 12:57:54;;;;;;;15.10;10.60;;;;;;;;;;4908847;28;20024;-52
2023/07/29 13:00:20;;;;;;;15.20;10.80;;;;;;;;;;4909018;28;20122;-53
2023/07/29 13:02:46;;;;;;;15.93;10.52;;;;;;;;;;4908073;28;20028;-52
2023/07/29 13:05:13;;;;;;;14.82;10.40;;;;;;;;;;4907744;28;20369;-54
2023/07/29 13:07:42;;;;;;;15.38;10.65;;;;;;;;;;4907843;28;20064;-56
2023/07/29 13:10:09;;;;;;;16.42;10.95;;;;;;;;;;4910320;28;20028;-55
2023/07/29 13:12:35;;;;;;;23.05;11.57;;;;;;;;;;4911045;28;20107;-53
2023/07/29 13:15:01;;;;;;;15.40;11.02;;;;;;;;;;4605242;28;10000026;-50
2023/07/29 13:17:27;;;;;;;16.45;10.63;;;;;;;;;;4991824;28;20084;-53
2023/07/29 13:19:53;;;;;;;14.55;10.45;;;;;;;;;;5007726;28;20085;-55
2023/07/29 13:22:20;;;;;;;16.60;11.18;;;;;;;;;;5007806;28;20042;-54
2023/07/29 13:24:46;;;;;;;14.65;10.52;;;;;;;;;;5006619;28;20084;-48
2023/07/29 13:27:13;;;;;;;15.10;11.25;;;;;;;;;;5007245;28;20239;-55
2023/07/29 13:29:40;;;;;;;15.13;10.80;;;;;;;;;;5007335;28;20033;-51
2023/07/29 13:32:06;;;;;;;15.75;11.13;;;;;;;;;;5007441;28;20172;-54
2023/07/29 13:34:34;;;;;;;15.48;10.88;;;;;;;;;;5006065;28;20037;-52
2023/07/29 13:37:00;;;;;;;14.77;10.60;;;;;;;;;;5007363;28;20528;-53
2023/07/29 13:39:27;;;;;;;15.73;10.50;;;;;;;;;;4951017;28;20472;-53
2023/07/29 13:41:53;;;;;;;16.13;10.30;;;;;;;;;;5007460;28;20988;-53
2023/07/29 13:44:19;;;;;;;15.70;10.80;;;;;;;;;;5006630;28;20044;-56
2023/07/29 13:46:45;;;;;;;15.00;10.68;;;;;;;;;;4921078;28;20056;-55
2023/07/29 13:49:11;;;;;;;15.35;10.18;;;;;;;;;;4907954;28;20029;-55
2023/07/29 13:51:37;;;;;;;15.52;10.43;;;;;;;;;;4907543;28;20449;-53
2023/07/29 13:54:03;;;;;;;16.08;10.57;;;;;;;;;;4988785;28;20028;-52
2023/07/29 13:56:29;;;;;;;14.68;9.90;;;;;;;;;;4908045;28;20039;-53
2023/07/29 13:58:55;;;;;;;14.75;9.88;;;;;;;;;;4908736;28;20032;-53
2023/07/29 14:01:21;;;;;;;15.25;10.07;;;;;;;;;;4646761;28;9999634;-54
2023/07/29 14:03:47;;;;;;;14.82;9.63;;;;;;;;;;5006812;28;20419;-53
2023/07/29 14:06:13;;;;;;;15.43;9.88;;;;;;;;;;5006532;28;20029;-49
2023/07/29 14:08:41;;;;;;;14.60;10.40;;;;;;;;;;5007068;28;20029;-52
2023/07/29 14:11:07;;;;;;;14.88;9.73;;;;;;;;;;5006577;28;20034;-51
2023/07/29 14:13:33;;;;;;;15.25;9.85;;;;;;;;;;5006806;28;20040;-50
2023/07/29 14:16:02;;;;;;;15.13;9.30;;;;;;;;;;4989150;28;20040;-52
2023/07/29 14:18:28;;;;;;;15.20;9.50;;;;;;;;;;4951358;28;20460;-49
2023/07/29 14:20:54;;;;;;;15.18;9.15;;;;;;;;;;4975506;28;20093;-49